Terminal Aerodrome Forecast
Issued by NWS Grand Forks, ND

Home | Current Version | Previous Version | Graphics & Text | Print | Product List | Glossary On
Versions: 1 2 3 4 5 6 7 8 9 10 11 12 13 14 15 16 17 18 19 20
636
FTUS43 KFGF 120457 AAB
TAFFAR
TAF AMD
KFAR 120457Z 1205/1224 34008KT P6SM BKN040
     FM120800 34010KT P6SM SCT050
     FM121100 35013G18KT P6SM FEW200
     FM122200 35012KT P6SM FEW200=

USA.gov is the U.S. government's official web portal to all federal, state and local government web resources and services.